Hauptseite
METAR-TAF:

METAR-TAF

Flughäfen :

Tanabe, Japan

Breite: 33-44N, Länge: 135-23E, Höhe: 105 m

Beobachtung

Neuester Wetterbericht von vor 4 Stunden und 23 Minuten, um 10:00 UTC
Wind 10 kt aus Ost, Böen bis zu 22 kt, variierte zwischen Ost/Nordost und Ost/Südost
Temperatur 18°C
Luftfeuchtigkeit 83%
Luftdruck 1010 hPa
Sichtweite 10 km oder mehr
Leicht bewölkt in der Höhe von 1000 ft
Aufgelockert bewölkt in der Höhe von 2000 ft
Durchbrochene Bewölkung in der Höhe von 6000 ft

METAR: RJBD 231000Z 10010G22KT 060V120 9999 FEW010 SCT020 BKN060 18/15 Q1010

Zeit: 23:23 (14:23 UTC)


TAF: fehlend

Wetterbeobachtungen und Prognosen von mehr als 4000 Flughäfen (METAR und TAF Bericht).

Die verfügbaren Stationen werden durch gelbe und rote Markierungen auf der Karte dargestellt.

Führen Sie die Maus auf sie, um den Namen der Station zu sehen.

Darauf klicken, um die Beobachtung von Wetterbeobachtungen und Prognosen zu sehen.

Um die Karte zu ändern : klicken Sie auf den grünen Tasten mit einem schwarzen Kreuz Zum Vergrößern, auf den grünen Button mit einem Gedankenstrich zu verkleinern, oder auf die grünen Pfeile für benachbarte Karten.


METAR-TAF: